sensor_id;sensor_type;location;lat;lon;timestamp;P1;durP1;ratioP1;P2;durP2;ratioP2
8663;SDS011;4369;47.842;13.096;2023-11-21T00:00:34;5.83;;;2.20;;
8663;SDS011;4369;47.842;13.096;2023-11-21T00:03:01;6.23;;;2.13;;
8663;SDS011;4369;47.842;13.096;2023-11-21T00:05:29;5.73;;;1.73;;
8663;SDS011;4369;47.842;13.096;2023-11-21T00:07:56;6.20;;;2.23;;
8663;SDS011;4369;47.842;13.096;2023-11-21T00:10:24;3.10;;;2.07;;
8663;SDS011;4369;47.842;13.096;2023-11-21T00:12:51;6.07;;;2.27;;
8663;SDS011;4369;47.842;13.096;2023-11-21T00:15:20;6.97;;;2.00;;
8663;SDS011;4369;47.842;13.096;2023-11-21T00:17:47;5.60;;;2.07;;
8663;SDS011;4369;47.842;13.096;2023-11-21T00:20:13;5.67;;;2.90;;
8663;SDS011;4369;47.842;13.096;2023-11-21T00:22:40;5.60;;;2.70;;
8663;SDS011;4369;47.842;13.096;2023-11-21T00:25:08;4.57;;;3.00;;
8663;SDS011;4369;47.842;13.096;2023-11-21T00:27:36;7.60;;;2.83;;
8663;SDS011;4369;47.842;13.096;2023-11-21T00:30:04;5.77;;;3.20;;
8663;SDS011;4369;47.842;13.096;2023-11-21T00:32:32;4.57;;;2.50;;
8663;SDS011;4369;47.842;13.096;2023-11-21T00:34:59;5.97;;;3.20;;
8663;SDS011;4369;47.842;13.096;2023-11-21T00:37:25;5.77;;;2.70;;
8663;SDS011;4369;47.842;13.096;2023-11-21T00:39:52;4.43;;;3.00;;
8663;SDS011;4369;47.842;13.096;2023-11-21T00:42:19;5.03;;;2.80;;
8663;SDS011;4369;47.842;13.096;2023-11-21T00:44:49;8.60;;;3.33;;
8663;SDS011;4369;47.842;13.096;2023-11-21T00:47:16;8.53;;;3.97;;
8663;SDS011;4369;47.842;13.096;2023-11-21T00:49:42;7.23;;;3.77;;
8663;SDS011;4369;47.842;13.096;2023-11-21T00:52:09;6.03;;;3.03;;
8663;SDS011;4369;47.842;13.096;2023-11-21T00:54:36;6.73;;;3.23;;
8663;SDS011;4369;47.842;13.096;2023-11-21T00:57:03;5.97;;;3.23;;
8663;SDS011;4369;47.842;13.096;2023-11-21T00:59:30;5.43;;;3.43;;
8663;SDS011;4369;47.842;13.096;2023-11-21T01:01:58;3.43;;;2.77;;
8663;SDS011;4369;47.842;13.096;2023-11-21T01:04:26;6.53;;;3.33;;
8663;SDS011;4369;47.842;13.096;2023-11-21T01:06:53;4.70;;;3.40;;
8663;SDS011;4369;47.842;13.096;2023-11-21T01:09:20;7.43;;;3.73;;
8663;SDS011;4369;47.842;13.096;2023-11-21T01:11:47;5.43;;;3.17;;
8663;SDS011;4369;47.842;13.096;2023-11-21T01:14:14;7.00;;;3.00;;
8663;SDS011;4369;47.842;13.096;2023-11-21T01:16:42;3.67;;;2.80;;
8663;SDS011;4369;47.842;13.096;2023-11-21T01:19:10;2.83;;;2.43;;
8663;SDS011;4369;47.842;13.096;2023-11-21T01:21:38;4.67;;;2.50;;
8663;SDS011;4369;47.842;13.096;2023-11-21T01:24:05;5.97;;;2.87;;
8663;SDS011;4369;47.842;13.096;2023-11-21T01:26:32;6.03;;;2.60;;
8663;SDS011;4369;47.842;13.096;2023-11-21T01:29:02;3.67;;;2.40;;
8663;SDS011;4369;47.842;13.096;2023-11-21T01:31:29;4.10;;;2.20;;
8663;SDS011;4369;47.842;13.096;2023-11-21T01:33:56;8.60;;;2.83;;
8663;SDS011;4369;47.842;13.096;2023-11-21T01:36:30;5.57;;;2.80;;
8663;SDS011;4369;47.842;13.096;2023-11-21T01:38:58;3.17;;;2.60;;
8663;SDS011;4369;47.842;13.096;2023-11-21T01:41:26;5.20;;;2.47;;
8663;SDS011;4369;47.842;13.096;2023-11-21T01:43:53;8.43;;;2.63;;
8663;SDS011;4369;47.842;13.096;2023-11-21T01:46:20;4.07;;;2.50;;
8663;SDS011;4369;47.842;13.096;2023-11-21T01:48:48;5.27;;;2.37;;
8663;SDS011;4369;47.842;13.096;2023-11-21T01:51:15;4.73;;;2.80;;
8663;SDS011;4369;47.842;13.096;2023-11-21T01:53:44;2.83;;;2.13;;
8663;SDS011;4369;47.842;13.096;2023-11-21T01:56:12;10.07;;;2.90;;
8663;SDS011;4369;47.842;13.096;2023-11-21T01:58:39;4.20;;;2.43;;
8663;SDS011;4369;47.842;13.096;2023-11-21T02:01:06;4.33;;;2.50;;
8663;SDS011;4369;47.842;13.096;2023-11-21T02:03:34;5.57;;;2.60;;
8663;SDS011;4369;47.842;13.096;2023-11-21T02:06:01;7.07;;;2.80;;
8663;SDS011;4369;47.842;13.096;2023-11-21T02:08:29;2.83;;;2.40;;
8663;SDS011;4369;47.842;13.096;2023-11-21T02:10:57;7.40;;;2.13;;
8663;SDS011;4369;47.842;13.096;2023-11-21T02:13:24;6.17;;;2.10;;
8663;SDS011;4369;47.842;13.096;2023-11-21T02:15:51;8.23;;;2.70;;
8663;SDS011;4369;47.842;13.096;2023-11-21T02:18:19;5.57;;;2.27;;
8663;SDS011;4369;47.842;13.096;2023-11-21T02:20:47;5.10;;;2.50;;
8663;SDS011;4369;47.842;13.096;2023-11-21T02:23:15;5.27;;;2.20;;
8663;SDS011;4369;47.842;13.096;2023-11-21T02:25:43;3.00;;;2.40;;
8663;SDS011;4369;47.842;13.096;2023-11-21T02:28:10;4.03;;;2.40;;
8663;SDS011;4369;47.842;13.096;2023-11-21T02:30:38;6.87;;;2.50;;
8663;SDS011;4369;47.842;13.096;2023-11-21T02:33:04;5.73;;;2.30;;
8663;SDS011;4369;47.842;13.096;2023-11-21T02:35:32;5.07;;;3.17;;
8663;SDS011;4369;47.842;13.096;2023-11-21T02:38:00;5.50;;;2.57;;
8663;SDS011;4369;47.842;13.096;2023-11-21T02:40:28;6.70;;;2.67;;
8663;SDS011;4369;47.842;13.096;2023-11-21T02:42:55;3.90;;;2.37;;
8663;SDS011;4369;47.842;13.096;2023-11-21T02:45:24;6.03;;;2.90;;
8663;SDS011;4369;47.842;13.096;2023-11-21T02:47:51;5.30;;;3.43;;
8663;SDS011;4369;47.842;13.096;2023-11-21T02:50:21;5.67;;;3.10;;
8663;SDS011;4369;47.842;13.096;2023-11-21T02:52:48;5.73;;;2.80;;
8663;SDS011;4369;47.842;13.096;2023-11-21T02:55:16;4.93;;;2.60;;
8663;SDS011;4369;47.842;13.096;2023-11-21T02:57:44;5.70;;;2.77;;
8663;SDS011;4369;47.842;13.096;2023-11-21T03:00:11;4.47;;;2.37;;
8663;SDS011;4369;47.842;13.096;2023-11-21T03:02:40;5.70;;;2.40;;
8663;SDS011;4369;47.842;13.096;2023-11-21T03:05:07;3.60;;;1.90;;
8663;SDS011;4369;47.842;13.096;2023-11-21T03:07:34;2.60;;;1.80;;
8663;SDS011;4369;47.842;13.096;2023-11-21T03:10:02;3.80;;;2.30;;
8663;SDS011;4369;47.842;13.096;2023-11-21T03:12:30;3.87;;;2.50;;
8663;SDS011;4369;47.842;13.096;2023-11-21T03:14:58;5.67;;;2.33;;
8663;SDS011;4369;47.842;13.096;2023-11-21T03:17:26;8.10;;;6.43;;
8663;SDS011;4369;47.842;13.096;2023-11-21T03:19:54;10.30;;;6.87;;
8663;SDS011;4369;47.842;13.096;2023-11-21T03:22:22;5.87;;;4.83;;
8663;SDS011;4369;47.842;13.096;2023-11-21T03:24:49;6.03;;;3.20;;
8663;SDS011;4369;47.842;13.096;2023-11-21T03:27:16;7.70;;;3.60;;
8663;SDS011;4369;47.842;13.096;2023-11-21T03:29:43;4.40;;;2.50;;
8663;SDS011;4369;47.842;13.096;2023-11-21T03:32:13;3.40;;;2.30;;
8663;SDS011;4369;47.842;13.096;2023-11-21T03:34:52;6.60;;;3.40;;
8663;SDS011;4369;47.842;13.096;2023-11-21T03:37:20;8.77;;;3.80;;
8663;SDS011;4369;47.842;13.096;2023-11-21T03:39:47;8.23;;;3.40;;
8663;SDS011;4369;47.842;13.096;2023-11-21T03:42:14;5.23;;;2.90;;
8663;SDS011;4369;47.842;13.096;2023-11-21T03:44:41;3.23;;;2.33;;
8663;SDS011;4369;47.842;13.096;2023-11-21T03:47:08;5.50;;;2.30;;
8663;SDS011;4369;47.842;13.096;2023-11-21T03:49:36;6.70;;;2.10;;
8663;SDS011;4369;47.842;13.096;2023-11-21T03:52:03;3.77;;;1.70;;
8663;SDS011;4369;47.842;13.096;2023-11-21T03:54:32;4.33;;;1.67;;
8663;SDS011;4369;47.842;13.096;2023-11-21T03:57:01;6.30;;;1.80;;
8663;SDS011;4369;47.842;13.096;2023-11-21T03:59:28;5.27;;;2.17;;
8663;SDS011;4369;47.842;13.096;2023-11-21T04:01:55;5.57;;;2.10;;
8663;SDS011;4369;47.842;13.096;2023-11-21T04:04:22;6.63;;;2.17;;
8663;SDS011;4369;47.842;13.096;2023-11-21T04:06:50;4.10;;;2.00;;
8663;SDS011;4369;47.842;13.096;2023-11-21T04:09:18;2.63;;;1.80;;
8663;SDS011;4369;47.842;13.096;2023-11-21T04:11:45;3.70;;;1.80;;
8663;SDS011;4369;47.842;13.096;2023-11-21T04:14:12;3.90;;;2.23;;
8663;SDS011;4369;47.842;13.096;2023-11-21T04:16:40;4.70;;;1.77;;
8663;SDS011;4369;47.842;13.096;2023-11-21T04:19:07;5.20;;;1.93;;
8663;SDS011;4369;47.842;13.096;2023-11-21T04:21:35;4.10;;;1.90;;
8663;SDS011;4369;47.842;13.096;2023-11-21T04:24:04;5.10;;;2.40;;
8663;SDS011;4369;47.842;13.096;2023-11-21T04:26:31;4.50;;;2.13;;
8663;SDS011;4369;47.842;13.096;2023-11-21T04:28:58;4.07;;;1.70;;
8663;SDS011;4369;47.842;13.096;2023-11-21T04:31:25;4.00;;;2.07;;
8663;SDS011;4369;47.842;13.096;2023-11-21T04:33:52;3.87;;;1.60;;
8663;SDS011;4369;47.842;13.096;2023-11-21T04:36:19;4.80;;;2.03;;
8663;SDS011;4369;47.842;13.096;2023-11-21T04:38:45;7.67;;;2.10;;
8663;SDS011;4369;47.842;13.096;2023-11-21T04:41:14;4.20;;;1.90;;
8663;SDS011;4369;47.842;13.096;2023-11-21T04:43:41;5.03;;;1.63;;
8663;SDS011;4369;47.842;13.096;2023-11-21T04:46:08;6.47;;;2.07;;
8663;SDS011;4369;47.842;13.096;2023-11-21T04:48:35;5.55;;;2.35;;
8663;SDS011;4369;47.842;13.096;2023-11-21T04:51:02;2.73;;;1.90;;
8663;SDS011;4369;47.842;13.096;2023-11-21T04:53:30;7.50;;;2.33;;
8663;SDS011;4369;47.842;13.096;2023-11-21T04:55:57;6.17;;;1.80;;
8663;SDS011;4369;47.842;13.096;2023-11-21T04:58:25;3.43;;;2.07;;
8663;SDS011;4369;47.842;13.096;2023-11-21T05:00:52;3.70;;;1.70;;
8663;SDS011;4369;47.842;13.096;2023-11-21T05:03:19;5.00;;;1.90;;
8663;SDS011;4369;47.842;13.096;2023-11-21T05:05:48;4.30;;;2.07;;
8663;SDS011;4369;47.842;13.096;2023-11-21T05:08:15;5.83;;;1.80;;
8663;SDS011;4369;47.842;13.096;2023-11-21T05:10:42;6.13;;;2.10;;
8663;SDS011;4369;47.842;13.096;2023-11-21T05:13:09;4.97;;;2.20;;
8663;SDS011;4369;47.842;13.096;2023-11-21T05:15:37;3.73;;;2.40;;
8663;SDS011;4369;47.842;13.096;2023-11-21T05:18:04;5.57;;;2.40;;
8663;SDS011;4369;47.842;13.096;2023-11-21T05:20:31;5.90;;;2.00;;
8663;SDS011;4369;47.842;13.096;2023-11-21T05:22:58;3.00;;;1.93;;
8663;SDS011;4369;47.842;13.096;2023-11-21T05:25:25;4.23;;;2.20;;
8663;SDS011;4369;47.842;13.096;2023-11-21T05:27:52;6.77;;;2.60;;
8663;SDS011;4369;47.842;13.096;2023-11-21T05:30:21;5.23;;;2.40;;
8663;SDS011;4369;47.842;13.096;2023-11-21T05:32:50;3.87;;;2.20;;
8663;SDS011;4369;47.842;13.096;2023-11-21T05:35:17;3.90;;;2.70;;
8663;SDS011;4369;47.842;13.096;2023-11-21T05:37:44;6.73;;;3.17;;
8663;SDS011;4369;47.842;13.096;2023-11-21T05:40:11;9.30;;;2.80;;
8663;SDS011;4369;47.842;13.096;2023-11-21T05:42:39;6.33;;;3.30;;
8663;SDS011;4369;47.842;13.096;2023-11-21T05:45:06;5.00;;;2.80;;
8663;SDS011;4369;47.842;13.096;2023-11-21T05:47:36;6.50;;;2.63;;
8663;SDS011;4369;47.842;13.096;2023-11-21T05:50:06;6.23;;;2.93;;
8663;SDS011;4369;47.842;13.096;2023-11-21T05:52:37;6.87;;;3.10;;
8663;SDS011;4369;47.842;13.096;2023-11-21T05:55:04;4.80;;;3.10;;
8663;SDS011;4369;47.842;13.096;2023-11-21T05:57:32;7.97;;;2.60;;
8663;SDS011;4369;47.842;13.096;2023-11-21T06:00:01;7.80;;;2.93;;
8663;SDS011;4369;47.842;13.096;2023-11-21T06:02:36;7.40;;;2.73;;
8663;SDS011;4369;47.842;13.096;2023-11-21T06:05:04;5.10;;;2.50;;
8663;SDS011;4369;47.842;13.096;2023-11-21T06:07:33;7.37;;;3.10;;
8663;SDS011;4369;47.842;13.096;2023-11-21T06:10:00;5.63;;;3.00;;
8663;SDS011;4369;47.842;13.096;2023-11-21T06:12:31;6.63;;;3.50;;
8663;SDS011;4369;47.842;13.096;2023-11-21T06:15:01;6.93;;;3.63;;
8663;SDS011;4369;47.842;13.096;2023-11-21T06:17:30;6.73;;;3.00;;
8663;SDS011;4369;47.842;13.096;2023-11-21T06:19:57;4.03;;;2.30;;
8663;SDS011;4369;47.842;13.096;2023-11-21T06:22:27;3.77;;;2.30;;
8663;SDS011;4369;47.842;13.096;2023-11-21T06:24:55;6.03;;;2.70;;
8663;SDS011;4369;47.842;13.096;2023-11-21T06:27:23;8.77;;;2.87;;
8663;SDS011;4369;47.842;13.096;2023-11-21T06:29:50;4.47;;;2.50;;
8663;SDS011;4369;47.842;13.096;2023-11-21T06:32:17;5.60;;;2.67;;
8663;SDS011;4369;47.842;13.096;2023-11-21T06:34:45;5.97;;;2.83;;
8663;SDS011;4369;47.842;13.096;2023-11-21T06:37:12;8.37;;;3.20;;
8663;SDS011;4369;47.842;13.096;2023-11-21T06:39:40;8.77;;;2.93;;
8663;SDS011;4369;47.842;13.096;2023-11-21T06:42:07;6.53;;;2.40;;
8663;SDS011;4369;47.842;13.096;2023-11-21T06:44:34;5.03;;;2.87;;
8663;SDS011;4369;47.842;13.096;2023-11-21T06:47:02;5.37;;;2.10;;
8663;SDS011;4369;47.842;13.096;2023-11-21T06:49:29;9.30;;;2.67;;
8663;SDS011;4369;47.842;13.096;2023-11-21T06:51:56;6.70;;;2.50;;
8663;SDS011;4369;47.842;13.096;2023-11-21T06:54:23;6.00;;;2.50;;
8663;SDS011;4369;47.842;13.096;2023-11-21T06:56:52;5.47;;;2.37;;
8663;SDS011;4369;47.842;13.096;2023-11-21T06:59:19;3.80;;;2.27;;
8663;SDS011;4369;47.842;13.096;2023-11-21T07:01:46;3.90;;;2.07;;
8663;SDS011;4369;47.842;13.096;2023-11-21T07:04:12;5.43;;;2.23;;
8663;SDS011;4369;47.842;13.096;2023-11-21T07:06:39;3.53;;;2.10;;
8663;SDS011;4369;47.842;13.096;2023-11-21T07:09:06;4.03;;;2.10;;
8663;SDS011;4369;47.842;13.096;2023-11-21T07:11:34;7.10;;;2.93;;
8663;SDS011;4369;47.842;13.096;2023-11-21T07:14:03;4.10;;;1.90;;
8663;SDS011;4369;47.842;13.096;2023-11-21T07:16:32;3.57;;;1.80;;
8663;SDS011;4369;47.842;13.096;2023-11-21T07:19:00;5.93;;;1.70;;
8663;SDS011;4369;47.842;13.096;2023-11-21T07:21:26;8.53;;;2.50;;
8663;SDS011;4369;47.842;13.096;2023-11-21T07:23:54;6.10;;;2.20;;
8663;SDS011;4369;47.842;13.096;2023-11-21T07:26:20;6.93;;;1.80;;
8663;SDS011;4369;47.842;13.096;2023-11-21T07:28:47;5.60;;;2.03;;
8663;SDS011;4369;47.842;13.096;2023-11-21T07:31:15;4.27;;;2.30;;
8663;SDS011;4369;47.842;13.096;2023-11-21T07:33:42;3.70;;;2.07;;
8663;SDS011;4369;47.842;13.096;2023-11-21T07:36:12;5.33;;;2.00;;
8663;SDS011;4369;47.842;13.096;2023-11-21T07:38:39;4.97;;;2.20;;
8663;SDS011;4369;47.842;13.096;2023-11-21T07:41:06;4.40;;;2.00;;
8663;SDS011;4369;47.842;13.096;2023-11-21T07:43:34;7.07;;;2.10;;
8663;SDS011;4369;47.842;13.096;2023-11-21T07:46:01;6.43;;;2.17;;
8663;SDS011;4369;47.842;13.096;2023-11-21T07:48:30;4.10;;;1.90;;
8663;SDS011;4369;47.842;13.096;2023-11-21T07:50:57;2.07;;;1.70;;
8663;SDS011;4369;47.842;13.096;2023-11-21T07:53:24;4.40;;;1.93;;
8663;SDS011;4369;47.842;13.096;2023-11-21T07:55:53;3.57;;;2.20;;
8663;SDS011;4369;47.842;13.096;2023-11-21T07:58:20;6.10;;;2.43;;
8663;SDS011;4369;47.842;13.096;2023-11-21T08:00:48;3.10;;;2.03;;
8663;SDS011;4369;47.842;13.096;2023-11-21T08:03:15;5.17;;;2.30;;
8663;SDS011;4369;47.842;13.096;2023-11-21T08:05:44;2.73;;;1.70;;
8663;SDS011;4369;47.842;13.096;2023-11-21T08:08:11;4.23;;;1.93;;
8663;SDS011;4369;47.842;13.096;2023-11-21T08:10:38;3.33;;;1.90;;
8663;SDS011;4369;47.842;13.096;2023-11-21T08:13:05;3.00;;;1.90;;
8663;SDS011;4369;47.842;13.096;2023-11-21T08:15:34;5.20;;;2.23;;
8663;SDS011;4369;47.842;13.096;2023-11-21T08:18:02;2.23;;;1.20;;
8663;SDS011;4369;47.842;13.096;2023-11-21T08:20:29;3.30;;;1.57;;
8663;SDS011;4369;47.842;13.096;2023-11-21T08:22:57;3.00;;;1.60;;
8663;SDS011;4369;47.842;13.096;2023-11-21T08:25:24;2.27;;;1.40;;
8663;SDS011;4369;47.842;13.096;2023-11-21T08:27:52;3.33;;;1.83;;
8663;SDS011;4369;47.842;13.096;2023-11-21T08:30:19;3.73;;;1.70;;
8663;SDS011;4369;47.842;13.096;2023-11-21T08:32:48;2.43;;;1.47;;
8663;SDS011;4369;47.842;13.096;2023-11-21T08:35:16;2.60;;;1.30;;
8663;SDS011;4369;47.842;13.096;2023-11-21T08:37:43;1.80;;;1.30;;
8663;SDS011;4369;47.842;13.096;2023-11-21T08:40:11;2.10;;;1.10;;
8663;SDS011;4369;47.842;13.096;2023-11-21T08:42:41;4.17;;;1.80;;
8663;SDS011;4369;47.842;13.096;2023-11-21T08:45:08;3.63;;;1.50;;
8663;SDS011;4369;47.842;13.096;2023-11-21T08:47:36;3.73;;;1.60;;
8663;SDS011;4369;47.842;13.096;2023-11-21T08:50:02;3.67;;;1.83;;
8663;SDS011;4369;47.842;13.096;2023-11-21T08:52:31;6.07;;;1.77;;
8663;SDS011;4369;47.842;13.096;2023-11-21T08:54:58;4.40;;;1.80;;
8663;SDS011;4369;47.842;13.096;2023-11-21T08:57:29;4.07;;;1.70;;
8663;SDS011;4369;47.842;13.096;2023-11-21T08:59:56;2.70;;;1.50;;
8663;SDS011;4369;47.842;13.096;2023-11-21T09:02:22;2.00;;;1.40;;
8663;SDS011;4369;47.842;13.096;2023-11-21T09:04:51;2.33;;;1.77;;
8663;SDS011;4369;47.842;13.096;2023-11-21T09:07:18;2.77;;;1.77;;
8663;SDS011;4369;47.842;13.096;2023-11-21T09:09:46;2.03;;;1.40;;
8663;SDS011;4369;47.842;13.096;2023-11-21T09:12:13;2.73;;;1.30;;
8663;SDS011;4369;47.842;13.096;2023-11-21T09:14:41;4.27;;;2.00;;
8663;SDS011;4369;47.842;13.096;2023-11-21T09:17:09;4.17;;;2.07;;
8663;SDS011;4369;47.842;13.096;2023-11-21T09:19:37;4.30;;;2.03;;
8663;SDS011;4369;47.842;13.096;2023-11-21T09:22:03;5.43;;;2.23;;
8663;SDS011;4369;47.842;13.096;2023-11-21T09:24:31;3.33;;;1.80;;
8663;SDS011;4369;47.842;13.096;2023-11-21T09:26:58;3.83;;;2.00;;
8663;SDS011;4369;47.842;13.096;2023-11-21T09:29:25;3.37;;;1.97;;
8663;SDS011;4369;47.842;13.096;2023-11-21T09:31:53;2.40;;;2.00;;
8663;SDS011;4369;47.842;13.096;2023-11-21T09:34:20;2.83;;;2.23;;
8663;SDS011;4369;47.842;13.096;2023-11-21T09:36:47;3.70;;;1.93;;
8663;SDS011;4369;47.842;13.096;2023-11-21T09:39:14;4.07;;;2.10;;
8663;SDS011;4369;47.842;13.096;2023-11-21T09:41:43;4.93;;;2.37;;
8663;SDS011;4369;47.842;13.096;2023-11-21T09:44:13;2.63;;;2.30;;
8663;SDS011;4369;47.842;13.096;2023-11-21T09:46:44;4.53;;;2.53;;
8663;SDS011;4369;47.842;13.096;2023-11-21T09:49:16;2.97;;;2.40;;
8663;SDS011;4369;47.842;13.096;2023-11-21T09:51:50;3.80;;;2.67;;
8663;SDS011;4369;47.842;13.096;2023-11-21T09:54:20;8.67;;;2.70;;
8663;SDS011;4369;47.842;13.096;2023-11-21T09:56:47;3.43;;;2.23;;
8663;SDS011;4369;47.842;13.096;2023-11-21T09:59:15;3.47;;;2.87;;
8663;SDS011;4369;47.842;13.096;2023-11-21T10:01:42;9.57;;;3.20;;
8663;SDS011;4369;47.842;13.096;2023-11-21T10:04:09;6.10;;;2.80;;
8663;SDS011;4369;47.842;13.096;2023-11-21T10:06:39;7.03;;;3.17;;
8663;SDS011;4369;47.842;13.096;2023-11-21T10:09:07;5.50;;;2.90;;
8663;SDS011;4369;47.842;13.096;2023-11-21T10:11:37;5.63;;;3.13;;
8663;SDS011;4369;47.842;13.096;2023-11-21T10:14:07;4.43;;;3.30;;
8663;SDS011;4369;47.842;13.096;2023-11-21T10:16:38;4.00;;;3.10;;
8663;SDS011;4369;47.842;13.096;2023-11-21T10:19:05;7.23;;;3.60;;
8663;SDS011;4369;47.842;13.096;2023-11-21T10:21:34;8.03;;;3.80;;
8663;SDS011;4369;47.842;13.096;2023-11-21T10:24:02;5.77;;;3.80;;
8663;SDS011;4369;47.842;13.096;2023-11-21T10:26:30;7.10;;;2.73;;
8663;SDS011;4369;47.842;13.096;2023-11-21T10:28:59;5.20;;;3.13;;
8663;SDS011;4369;47.842;13.096;2023-11-21T10:31:28;4.97;;;2.80;;
8663;SDS011;4369;47.842;13.096;2023-11-21T10:33:57;6.00;;;3.07;;
8663;SDS011;4369;47.842;13.096;2023-11-21T10:36:40;4.37;;;2.40;;
8663;SDS011;4369;47.842;13.096;2023-11-21T10:39:08;3.13;;;2.13;;
8663;SDS011;4369;47.842;13.096;2023-11-21T10:41:35;3.00;;;2.17;;
8663;SDS011;4369;47.842;13.096;2023-11-21T10:44:05;3.63;;;2.00;;
8663;SDS011;4369;47.842;13.096;2023-11-21T10:46:34;3.30;;;2.00;;
8663;SDS011;4369;47.842;13.096;2023-11-21T10:49:01;4.43;;;2.03;;
8663;SDS011;4369;47.842;13.096;2023-11-21T10:51:28;3.40;;;1.80;;
8663;SDS011;4369;47.842;13.096;2023-11-21T10:53:55;2.23;;;1.83;;
8663;SDS011;4369;47.842;13.096;2023-11-21T10:56:23;3.33;;;1.80;;
8663;SDS011;4369;47.842;13.096;2023-11-21T10:58:52;3.77;;;1.67;;
8663;SDS011;4369;47.842;13.096;2023-11-21T11:01:19;3.30;;;1.70;;
8663;SDS011;4369;47.842;13.096;2023-11-21T11:03:48;4.10;;;2.13;;
8663;SDS011;4369;47.842;13.096;2023-11-21T11:06:19;5.10;;;2.07;;
8663;SDS011;4369;47.842;13.096;2023-11-21T11:08:47;4.50;;;2.10;;
8663;SDS011;4369;47.842;13.096;2023-11-21T11:11:15;3.83;;;2.23;;
8663;SDS011;4369;47.842;13.096;2023-11-21T11:13:45;2.30;;;2.00;;
8663;SDS011;4369;47.842;13.096;2023-11-21T11:16:12;5.80;;;2.40;;
8663;SDS011;4369;47.842;13.096;2023-11-21T11:18:42;3.23;;;2.20;;
8663;SDS011;4369;47.842;13.096;2023-11-21T11:21:14;2.70;;;2.00;;
8663;SDS011;4369;47.842;13.096;2023-11-21T11:23:53;2.70;;;2.20;;
8663;SDS011;4369;47.842;13.096;2023-11-21T11:26:39;7.33;;;3.17;;
8663;SDS011;4369;47.842;13.096;2023-11-21T11:29:17;3.07;;;2.30;;
8663;SDS011;4369;47.842;13.096;2023-11-21T11:31:55;3.63;;;2.27;;
8663;SDS011;4369;47.842;13.096;2023-11-21T11:34:30;4.20;;;2.80;;
8663;SDS011;4369;47.842;13.096;2023-11-21T11:37:02;3.40;;;2.90;;
8663;SDS011;4369;47.842;13.096;2023-11-21T11:39:31;3.43;;;2.80;;
8663;SDS011;4369;47.842;13.096;2023-11-21T11:42:02;5.73;;;2.80;;
8663;SDS011;4369;47.842;13.096;2023-11-21T11:44:47;4.50;;;2.80;;
8663;SDS011;4369;47.842;13.096;2023-11-21T11:47:19;3.37;;;2.97;;
8663;SDS011;4369;47.842;13.096;2023-11-21T11:49:57;6.13;;;3.23;;
8663;SDS011;4369;47.842;13.096;2023-11-21T11:52:34;4.10;;;2.80;;
8663;SDS011;4369;47.842;13.096;2023-11-21T11:55:04;3.80;;;3.10;;
8663;SDS011;4369;47.842;13.096;2023-11-21T11:57:32;3.10;;;2.80;;
8663;SDS011;4369;47.842;13.096;2023-11-21T12:00:08;4.13;;;3.17;;
8663;SDS011;4369;47.842;13.096;2023-11-21T12:02:45;3.37;;;2.73;;
8663;SDS011;4369;47.842;13.096;2023-11-21T12:05:13;3.43;;;3.13;;
8663;SDS011;4369;47.842;13.096;2023-11-21T12:07:43;4.00;;;3.27;;
8663;SDS011;4369;47.842;13.096;2023-11-21T12:10:14;5.73;;;3.20;;
8663;SDS011;4369;47.842;13.096;2023-11-21T12:12:46;5.07;;;3.17;;
8663;SDS011;4369;47.842;13.096;2023-11-21T12:15:16;5.70;;;3.20;;
8663;SDS011;4369;47.842;13.096;2023-11-21T12:17:44;4.10;;;2.83;;
8663;SDS011;4369;47.842;13.096;2023-11-21T12:20:12;3.43;;;2.77;;
8663;SDS011;4369;47.842;13.096;2023-11-21T12:22:43;5.60;;;3.17;;
8663;SDS011;4369;47.842;13.096;2023-11-21T12:25:13;5.20;;;3.27;;
8663;SDS011;4369;47.842;13.096;2023-11-21T12:27:42;5.77;;;3.40;;
8663;SDS011;4369;47.842;13.096;2023-11-21T12:30:11;3.70;;;2.70;;
8663;SDS011;4369;47.842;13.096;2023-11-21T12:32:42;3.03;;;2.77;;
8663;SDS011;4369;47.842;13.096;2023-11-21T12:35:11;4.30;;;3.00;;
8663;SDS011;4369;47.842;13.096;2023-11-21T12:37:39;4.80;;;3.40;;
8663;SDS011;4369;47.842;13.096;2023-11-21T12:40:08;4.23;;;3.27;;
8663;SDS011;4369;47.842;13.096;2023-11-21T12:42:37;7.33;;;4.00;;
8663;SDS011;4369;47.842;13.096;2023-11-21T12:45:08;4.07;;;3.30;;
8663;SDS011;4369;47.842;13.096;2023-11-21T12:47:42;3.63;;;3.33;;
8663;SDS011;4369;47.842;13.096;2023-11-21T12:50:10;4.70;;;3.80;;
8663;SDS011;4369;47.842;13.096;2023-11-21T12:52:40;4.60;;;3.07;;
8663;SDS011;4369;47.842;13.096;2023-11-21T12:55:16;4.27;;;3.00;;
8663;SDS011;4369;47.842;13.096;2023-11-21T12:57:44;4.77;;;3.30;;
8663;SDS011;4369;47.842;13.096;2023-11-21T13:00:12;5.70;;;3.47;;
8663;SDS011;4369;47.842;13.096;2023-11-21T13:02:53;3.43;;;3.03;;
8663;SDS011;4369;47.842;13.096;2023-11-21T13:05:29;4.67;;;3.33;;
8663;SDS011;4369;47.842;13.096;2023-11-21T13:07:57;3.87;;;3.43;;
8663;SDS011;4369;47.842;13.096;2023-11-21T13:10:28;4.93;;;3.13;;
8663;SDS011;4369;47.842;13.096;2023-11-21T13:12:56;6.03;;;3.70;;
8663;SDS011;4369;47.842;13.096;2023-11-21T13:15:25;5.33;;;3.63;;
8663;SDS011;4369;47.842;13.096;2023-11-21T13:17:57;5.53;;;3.43;;
8663;SDS011;4369;47.842;13.096;2023-11-21T13:20:25;5.97;;;3.57;;
8663;SDS011;4369;47.842;13.096;2023-11-21T13:22:52;5.30;;;4.07;;
8663;SDS011;4369;47.842;13.096;2023-11-21T13:25:22;6.13;;;3.73;;
8663;SDS011;4369;47.842;13.096;2023-11-21T13:27:52;4.30;;;3.17;;
8663;SDS011;4369;47.842;13.096;2023-11-21T13:30:19;3.20;;;2.90;;
8663;SDS011;4369;47.842;13.096;2023-11-21T13:32:51;4.20;;;3.57;;
8663;SDS011;4369;47.842;13.096;2023-11-21T13:35:23;5.57;;;3.43;;
8663;SDS011;4369;47.842;13.096;2023-11-21T13:38:02;3.60;;;2.60;;
8663;SDS011;4369;47.842;13.096;2023-11-21T13:40:31;6.40;;;3.47;;
8663;SDS011;4369;47.842;13.096;2023-11-21T13:43:05;5.43;;;3.50;;
8663;SDS011;4369;47.842;13.096;2023-11-21T13:45:34;4.63;;;3.30;;
8663;SDS011;4369;47.842;13.096;2023-11-21T13:48:01;7.73;;;3.17;;
8663;SDS011;4369;47.842;13.096;2023-11-21T13:50:33;7.77;;;3.20;;
8663;SDS011;4369;47.842;13.096;2023-11-21T13:53:01;6.93;;;3.40;;
8663;SDS011;4369;47.842;13.096;2023-11-21T13:55:35;4.90;;;2.63;;
8663;SDS011;4369;47.842;13.096;2023-11-21T13:58:04;3.80;;;2.63;;
8663;SDS011;4369;47.842;13.096;2023-11-21T14:00:35;3.83;;;2.70;;
8663;SDS011;4369;47.842;13.096;2023-11-21T14:03:10;5.53;;;2.80;;
8663;SDS011;4369;47.842;13.096;2023-11-21T14:05:47;3.23;;;2.60;;
8663;SDS011;4369;47.842;13.096;2023-11-21T14:08:16;6.13;;;2.93;;
8663;SDS011;4369;47.842;13.096;2023-11-21T14:10:45;4.70;;;2.70;;
8663;SDS011;4369;47.842;13.096;2023-11-21T14:13:18;9.17;;;3.60;;
8663;SDS011;4369;47.842;13.096;2023-11-21T14:15:48;5.90;;;2.70;;
8663;SDS011;4369;47.842;13.096;2023-11-21T14:18:22;6.77;;;2.90;;
8663;SDS011;4369;47.842;13.096;2023-11-21T14:20:56;5.90;;;2.93;;
8663;SDS011;4369;47.842;13.096;2023-11-21T14:23:24;4.70;;;2.97;;
8663;SDS011;4369;47.842;13.096;2023-11-21T14:25:51;7.53;;;3.30;;
8663;SDS011;4369;47.842;13.096;2023-11-21T14:28:18;5.37;;;3.70;;
8663;SDS011;4369;47.842;13.096;2023-11-21T14:30:45;3.37;;;2.50;;
8663;SDS011;4369;47.842;13.096;2023-11-21T14:33:12;4.23;;;2.73;;
8663;SDS011;4369;47.842;13.096;2023-11-21T14:35:41;3.53;;;2.70;;
8663;SDS011;4369;47.842;13.096;2023-11-21T14:38:09;3.87;;;2.80;;
8663;SDS011;4369;47.842;13.096;2023-11-21T14:40:39;3.83;;;2.60;;
8663;SDS011;4369;47.842;13.096;2023-11-21T14:43:06;5.07;;;3.07;;
8663;SDS011;4369;47.842;13.096;2023-11-21T14:45:33;11.03;;;6.70;;
8663;SDS011;4369;47.842;13.096;2023-11-21T14:48:00;5.40;;;3.60;;
8663;SDS011;4369;47.842;13.096;2023-11-21T14:50:34;4.67;;;3.13;;
8663;SDS011;4369;47.842;13.096;2023-11-21T14:53:14;4.83;;;3.63;;
8663;SDS011;4369;47.842;13.096;2023-11-21T14:55:40;3.80;;;3.37;;
8663;SDS011;4369;47.842;13.096;2023-11-21T14:58:20;4.63;;;3.57;;
8663;SDS011;4369;47.842;13.096;2023-11-21T15:00:52;4.83;;;3.50;;
8663;SDS011;4369;47.842;13.096;2023-11-21T15:03:24;4.27;;;3.87;;
8663;SDS011;4369;47.842;13.096;2023-11-21T15:06:09;8.77;;;4.10;;
8663;SDS011;4369;47.842;13.096;2023-11-21T15:08:50;3.43;;;3.13;;